createdAt,value
2022-09-24T00:02:11.158Z,80.70
2022-09-24T00:06:15.147Z,80.70
2022-09-24T00:10:18.185Z,80.20
2022-09-24T00:14:21.271Z,79.60
2022-09-24T00:18:25.511Z,79.70
2022-09-24T00:22:28.408Z,79.20
2022-09-24T00:26:48.785Z,80.10
2022-09-24T00:30:52.406Z,81.00
2022-09-24T00:34:56.664Z,82.60
2022-09-24T00:39:00.767Z,83.60
2022-09-24T00:43:04.171Z,83.30
2022-09-24T00:47:07.594Z,83.20
2022-09-24T00:51:15.166Z,83.10
2022-09-24T00:55:20.042Z,83.50
2022-09-24T00:59:24.871Z,82.90
2022-09-24T01:03:29.197Z,82.50
2022-09-24T01:07:33.426Z,82.10
2022-09-24T01:11:46.915Z,81.90
2022-09-24T01:15:55.898Z,81.80
2022-09-24T01:20:29.729Z,82.60
2022-09-24T01:24:53.435Z,82.50
2022-09-24T01:29:20.429Z,82.70
2022-09-24T01:33:25.779Z,82.70
2022-09-24T01:37:33.819Z,82.50
2022-09-24T01:41:38.508Z,82.70
2022-09-24T01:45:43.488Z,82.70
2022-09-24T01:49:46.916Z,82.50
2022-09-24T01:53:55.673Z,81.80
2022-09-24T01:58:02.345Z,81.80
2022-09-24T02:02:13.168Z,81.20
2022-09-24T02:06:19.037Z,79.80
2022-09-24T02:10:22.093Z,79.70
2022-09-24T02:14:26.229Z,79.70
2022-09-24T02:18:35.910Z,80.70
2022-09-24T02:22:40.721Z,81.10
2022-09-24T02:26:43.925Z,80.70
2022-09-24T02:30:52.699Z,80.80
2022-09-24T02:35:02.593Z,80.90
2022-09-24T02:39:05.521Z,81.40
2022-09-24T02:43:08.371Z,80.90
2022-09-24T02:47:13.107Z,81.60
2022-09-24T02:51:17.357Z,82.10
2022-09-24T02:55:20.234Z,81.90
2022-09-24T02:59:23.062Z,81.30
2022-09-24T03:03:26.191Z,81.50
2022-09-24T03:07:30.368Z,81.50
2022-09-24T03:11:34.037Z,81.10
2022-09-24T03:15:36.896Z,81.20
2022-09-24T03:19:39.849Z,81.70
2022-09-24T03:23:44.152Z,81.40
2022-09-24T03:27:47.016Z,82.30
2022-09-24T03:31:49.938Z,81.40
2022-09-24T03:35:56.928Z,81.80
2022-09-24T03:40:01.353Z,81.00
2022-09-24T03:44:04.366Z,81.40
2022-09-24T03:48:07.248Z,80.70
2022-09-24T03:52:10.114Z,80.60
2022-09-24T03:56:14.919Z,80.90
2022-09-24T04:00:17.929Z,80.90
2022-09-24T04:04:20.830Z,81.00
2022-09-24T04:08:24.579Z,81.50
2022-09-24T04:12:30.157Z,81.90
2022-09-24T04:16:33.094Z,82.60
2022-09-24T04:20:36.432Z,82.00
2022-09-24T04:24:39.312Z,81.30
2022-09-24T04:28:43.518Z,82.60
2022-09-24T04:32:46.460Z,82.10
2022-09-24T04:36:49.523Z,82.40
2022-09-24T04:40:52.436Z,82.10
2022-09-24T04:44:56.719Z,81.90
2022-09-24T04:48:59.585Z,81.50
2022-09-24T04:53:03.272Z,82.10
2022-09-24T04:57:06.144Z,81.90
2022-09-24T05:01:10.725Z,81.60
2022-09-24T05:05:13.817Z,82.30
2022-09-24T05:09:17.119Z,83.20
2022-09-24T05:13:20.144Z,82.60
2022-09-24T05:17:24.818Z,83.20
2022-09-24T05:21:28.109Z,83.00
2022-09-24T05:25:31.049Z,83.00
2022-09-24T05:29:33.938Z,82.90
2022-09-24T05:33:38.157Z,82.60
2022-09-24T05:37:41.163Z,82.70
2022-09-24T05:41:44.040Z,82.90
2022-09-24T05:45:47.485Z,82.70
2022-09-24T05:49:51.709Z,82.10
2022-09-24T05:53:54.623Z,82.00
2022-09-24T05:57:57.558Z,81.70
2022-09-24T06:02:00.494Z,82.10
2022-09-24T06:06:04.907Z,82.60
2022-09-24T06:10:08.678Z,82.40
2022-09-24T06:14:13.098Z,82.20
2022-09-24T06:18:16.043Z,82.00
2022-09-24T06:22:25.027Z,81.70
2022-09-24T06:26:31.088Z,80.70
2022-09-24T06:30:35.891Z,81.40
2022-09-24T06:34:39.072Z,80.70
2022-09-24T06:38:45.361Z,80.40
2022-09-24T06:42:52.054Z,81.50
2022-09-24T06:46:55.004Z,80.50
2022-09-24T06:50:58.022Z,80.60
2022-09-24T06:55:02.437Z,80.40
2022-09-24T06:59:06.651Z,79.90
2022-09-24T07:03:14.751Z,80.20
2022-09-24T07:07:33.337Z,79.70
2022-09-24T07:11:37.930Z,80.30
2022-09-24T07:15:41.087Z,79.60
2022-09-24T07:19:44.019Z,80.60
2022-09-24T07:23:47.395Z,79.60
2022-09-24T07:27:51.667Z,79.40
2022-09-24T07:31:54.558Z,79.20
2022-09-24T07:35:57.402Z,79.10
2022-09-24T07:40:00.342Z,79.50
2022-09-24T07:44:04.810Z,79.60
2022-09-24T07:48:08.230Z,78.90
2022-09-24T07:52:12.264Z,79.30
2022-09-24T07:56:15.200Z,79.70
2022-09-24T08:00:21.275Z,78.60
2022-09-24T08:04:24.284Z,79.10
2022-09-24T08:08:27.836Z,78.50
2022-09-24T08:12:30.909Z,77.30
2022-09-24T08:16:35.495Z,77.60
2022-09-24T08:20:39.690Z,78.10
2022-09-24T08:24:43.390Z,77.90
2022-09-24T08:28:46.291Z,78.10
2022-09-24T08:32:50.600Z,77.80
2022-09-24T08:36:53.713Z,78.10
2022-09-24T08:41:03.068Z,77.50
2022-09-24T08:45:24.918Z,77.70
2022-09-24T08:49:32.538Z,77.70
2022-09-24T08:53:46.442Z,76.30
2022-09-24T08:57:56.952Z,75.90
2022-09-24T09:02:19.298Z,75.40
2022-09-24T09:06:47.203Z,75.80
2022-09-24T09:10:53.990Z,76.40
2022-09-24T09:15:03.249Z,75.00
2022-09-24T09:19:07.354Z,75.30
2022-09-24T09:23:17.962Z,75.00
2022-09-24T09:27:22.000Z,73.90
2022-09-24T09:31:33.617Z,74.20
2022-09-24T09:35:44.226Z,73.40
2022-09-24T09:39:54.829Z,73.50
2022-09-24T09:44:02.882Z,73.90
2022-09-24T09:48:06.943Z,73.30
2022-09-24T09:52:16.597Z,73.60
2022-09-24T09:56:25.286Z,72.90
2022-09-24T10:00:34.724Z,73.90
2022-09-24T10:04:40.531Z,74.10
2022-09-24T10:08:43.482Z,73.20
2022-09-24T10:12:48.075Z,74.20
2022-09-24T10:16:55.159Z,72.90
2022-09-24T10:20:59.205Z,73.00
2022-09-24T10:25:02.336Z,73.00
2022-09-24T10:29:30.937Z,73.80
2022-09-24T10:33:38.022Z,74.30
2022-09-24T10:37:52.722Z,72.70
2022-09-24T10:41:57.425Z,74.40
2022-09-24T10:46:14.420Z,73.80
2022-09-24T10:50:31.768Z,74.60
2022-09-24T10:54:48.899Z,74.60
2022-09-24T10:59:14.490Z,75.20
2022-09-24T11:03:55.421Z,74.20
2022-09-24T11:08:09.084Z,75.80
2022-09-24T11:12:19.901Z,74.50
2022-09-24T11:16:40.130Z,74.50
2022-09-24T11:20:51.762Z,74.60
2022-09-24T11:25:24.554Z,75.20
2022-09-24T11:29:49.621Z,76.50
2022-09-24T11:34:12.702Z,75.30
2022-09-24T11:38:23.897Z,76.20
2022-09-24T11:42:29.938Z,76.10
2022-09-24T11:46:47.406Z,76.30
2022-09-24T11:51:00.939Z,75.20
2022-09-24T11:55:15.032Z,75.70
2022-09-24T11:59:27.559Z,76.20
2022-09-24T12:03:39.549Z,77.30
2022-09-24T12:07:49.964Z,76.60
2022-09-24T12:11:59.404Z,76.30
2022-09-24T12:16:07.989Z,76.70
2022-09-24T12:20:20.325Z,77.30
2022-09-24T12:24:29.929Z,77.50
2022-09-24T12:28:59.385Z,76.90
2022-09-24T12:33:09.585Z,77.20
2022-09-24T12:37:25.640Z,77.70
2022-09-24T12:41:35.112Z,70.30
2022-09-24T12:45:39.644Z,71.60
2022-09-24T12:49:42.565Z,75.30
2022-09-24T12:54:00.634Z,76.40
2022-09-24T12:58:06.818Z,76.80
2022-09-24T13:02:18.829Z,76.80
2022-09-24T13:06:37.073Z,76.70
2022-09-24T13:10:40.829Z,77.30
2022-09-24T13:15:00.951Z,77.70
2022-09-24T13:19:06.887Z,78.00
2022-09-24T13:23:14.478Z,77.90
2022-09-24T13:27:37.435Z,78.50
2022-09-24T13:31:47.718Z,77.40
2022-09-24T13:36:07.345Z,77.60
2022-09-24T13:40:19.753Z,77.50
2022-09-24T13:44:27.262Z,79.20
2022-09-24T13:48:37.269Z,78.80
2022-09-24T13:52:46.535Z,78.30
2022-09-24T13:57:03.168Z,78.80
2022-09-24T14:01:13.311Z,79.20
2022-09-24T14:05:20.089Z,79.80
2022-09-24T14:09:32.814Z,81.10
2022-09-24T14:13:38.621Z,80.30
2022-09-24T14:17:41.535Z,80.30
2022-09-24T14:21:49.202Z,80.00
2022-09-24T14:25:54.226Z,80.50
2022-09-24T14:30:01.709Z,81.00
2022-09-24T14:34:06.317Z,81.70
2022-09-24T14:38:14.870Z,81.60
2022-09-24T14:42:26.812Z,81.60
2022-09-24T14:46:32.710Z,82.30
2022-09-24T14:50:38.815Z,81.60
2022-09-24T14:54:41.908Z,81.50
2022-09-24T14:58:46.180Z,81.50
2022-09-24T15:02:52.044Z,81.80
2022-09-24T15:06:55.349Z,83.00
2022-09-24T15:11:00.365Z,82.60
2022-09-24T15:15:26.400Z,82.20
2022-09-24T15:19:30.842Z,83.20
2022-09-24T15:23:34.105Z,83.40
2022-09-24T15:27:39.785Z,84.50
2022-09-24T15:31:44.563Z,83.80
2022-09-24T15:35:47.530Z,84.00
2022-09-24T15:39:51.397Z,84.70
2022-09-24T15:43:58.094Z,84.80
2022-09-24T15:48:02.722Z,85.70
2022-09-24T15:52:08.849Z,85.80
2022-09-24T15:56:11.738Z,85.60
2022-09-24T16:00:17.490Z,86.70
2022-09-24T16:04:22.037Z,86.90
2022-09-24T16:08:24.977Z,86.20
2022-09-24T16:12:28.765Z,86.00
2022-09-24T16:16:31.690Z,85.70
2022-09-24T16:20:40.360Z,86.00
2022-09-24T16:24:43.282Z,86.40
2022-09-24T16:28:47.434Z,86.30
2022-09-24T16:32:50.308Z,86.10
2022-09-24T16:36:54.561Z,85.90
2022-09-24T16:41:00.993Z,86.30
2022-09-24T16:45:04.224Z,85.70
2022-09-24T16:49:07.195Z,85.60
2022-09-24T16:53:11.697Z,85.30
2022-09-24T16:57:14.631Z,85.40
2022-09-24T17:01:18.914Z,85.10
2022-09-24T17:05:22.731Z,85.20
2022-09-24T17:09:44.460Z,86.30
2022-09-24T17:13:48.217Z,87.40
2022-09-24T17:17:51.232Z,88.10
2022-09-24T17:21:54.422Z,88.20
2022-09-24T17:26:04.066Z,87.20
2022-09-24T17:30:09.290Z,87.50
2022-09-24T17:34:12.450Z,88.10
2022-09-24T17:38:16.247Z,88.30
2022-09-24T17:42:20.530Z,87.80
2022-09-24T17:46:23.667Z,88.60
2022-09-24T17:50:26.920Z,88.60
2022-09-24T17:54:29.856Z,88.00
2022-09-24T17:58:37.398Z,87.70
2022-09-24T18:02:40.354Z,87.80
2022-09-24T18:06:44.798Z,87.70
2022-09-24T18:10:47.860Z,87.50
2022-09-24T18:14:52.139Z,87.40
2022-09-24T18:18:55.842Z,87.50
2022-09-24T18:22:58.918Z,87.40
2022-09-24T18:27:01.763Z,87.40
2022-09-24T18:31:06.939Z,87.40
2022-09-24T18:35:10.829Z,87.20
2022-09-24T18:39:21.873Z,87.60
2022-09-24T18:43:27.788Z,87.50
2022-09-24T18:47:32.378Z,87.40
2022-09-24T18:51:37.179Z,87.20
2022-09-24T18:55:40.851Z,87.30
2022-09-24T18:59:45.454Z,87.40
2022-09-24T19:03:49.863Z,88.00
2022-09-24T19:07:52.754Z,88.00
2022-09-24T19:11:56.052Z,88.00
2022-09-24T19:15:59.000Z,87.70
2022-09-24T19:20:03.642Z,87.90
2022-09-24T19:24:08.297Z,88.20
2022-09-24T19:28:13.347Z,88.00
2022-09-24T19:32:16.425Z,87.80
2022-09-24T19:36:21.644Z,88.00
2022-09-24T19:40:24.592Z,87.90
2022-09-24T19:44:28.231Z,88.00
2022-09-24T19:48:33.954Z,88.40
2022-09-24T19:52:38.294Z,88.60
2022-09-24T19:56:41.496Z,89.00
2022-09-24T20:00:44.401Z,89.60
2022-09-24T20:04:47.269Z,90.00
2022-09-24T20:08:52.089Z,89.30
2022-09-24T20:12:55.139Z,89.10
2022-09-24T20:16:58.070Z,88.60
2022-09-24T20:21:04.029Z,88.90
2022-09-24T20:25:09.045Z,88.80
2022-09-24T20:29:13.094Z,89.00
2022-09-24T20:33:18.435Z,88.70
2022-09-24T20:37:21.330Z,88.70
2022-09-24T20:41:26.358Z,88.70
2022-09-24T20:45:29.642Z,88.80
2022-09-24T20:49:33.355Z,88.60
2022-09-24T20:53:36.285Z,89.30
2022-09-24T20:57:42.357Z,88.80
2022-09-24T21:01:45.843Z,88.90
2022-09-24T21:05:48.933Z,88.50
2022-09-24T21:09:51.818Z,88.20
2022-09-24T21:14:00.860Z,88.20
2022-09-24T21:18:21.701Z,88.90
2022-09-24T21:22:26.013Z,88.70
2022-09-24T21:26:30.870Z,88.70
2022-09-24T21:30:35.533Z,89.00
2022-09-24T21:34:39.322Z,88.70
2022-09-24T21:38:42.166Z,89.20
2022-09-24T21:42:45.763Z,89.00
2022-09-24T21:46:52.199Z,89.00
2022-09-24T21:50:56.385Z,89.40
2022-09-24T21:54:59.238Z,89.40
2022-09-24T21:59:23.572Z,89.50
2022-09-24T22:03:28.598Z,89.40
2022-09-24T22:07:31.519Z,89.70
2022-09-24T22:11:35.054Z,90.00
2022-09-24T22:15:38.289Z,89.70
2022-09-24T22:19:42.872Z,89.50
2022-09-24T22:23:45.766Z,89.40
2022-09-24T22:27:48.722Z,89.30
2022-09-24T22:31:51.606Z,89.30
2022-09-24T22:35:58.138Z,89.80
2022-09-24T22:40:01.430Z,89.90
2022-09-24T22:44:04.443Z,89.50
2022-09-24T22:48:07.328Z,89.70
2022-09-24T22:52:11.538Z,89.60
2022-09-24T22:56:16.277Z,89.60
2022-09-24T23:00:19.563Z,89.60
2022-09-24T23:04:22.858Z,89.70
2022-09-24T23:08:33.201Z,89.60
2022-09-24T23:12:36.229Z,89.60
2022-09-24T23:16:39.753Z,89.30
2022-09-24T23:20:43.107Z,88.90
2022-09-24T23:24:47.426Z,88.70
2022-09-24T23:28:52.946Z,88.70
2022-09-24T23:32:56.025Z,88.90
2022-09-24T23:36:58.904Z,89.20
2022-09-24T23:41:03.740Z,89.30
2022-09-24T23:45:07.973Z,89.20
2022-09-24T23:49:10.834Z,89.40
2022-09-24T23:53:15.106Z,89.40
2022-09-24T23:57:19.360Z,89.60
